createdAt,value
2019-03-24T11:29:55.045Z,36.17
2019-03-24T11:32:24.992Z,35.23
2019-03-24T11:34:54.985Z,35.03
2019-03-24T11:37:25.201Z,36.57
2019-03-24T11:39:55.198Z,36.73
2019-03-24T11:42:25.723Z,34.97
2019-03-24T11:44:55.730Z,36.17
2019-03-24T11:47:26.839Z,34.67
2019-03-24T11:49:57.051Z,36.40
2019-03-24T11:52:27.128Z,40.77
2019-03-24T11:54:57.559Z,33.97
2019-03-24T11:57:27.640Z,38.03
2019-03-24T11:59:57.702Z,37.60
2019-03-24T12:02:27.705Z,37.37
2019-03-24T12:04:57.757Z,37.77
2019-03-24T12:07:27.741Z,34.97
2019-03-24T12:09:57.757Z,33.10
2019-03-24T12:12:27.725Z,38.50
2019-03-24T12:14:58.797Z,34.43
2019-03-24T12:17:28.808Z,35.97
2019-03-24T12:19:58.841Z,37.43
2019-03-24T12:22:28.822Z,35.53
2019-03-24T12:24:58.859Z,34.35
2019-03-24T12:27:28.893Z,34.00
2019-03-24T12:29:58.974Z,35.53
2019-03-24T12:32:29.046Z,34.67
2019-03-24T12:34:59.129Z,34.58
2019-03-24T12:37:29.209Z,30.12
2019-03-24T12:39:59.211Z,33.60
2019-03-24T12:42:29.230Z,32.20
2019-03-24T12:44:59.283Z,32.63
2019-03-24T12:47:29.275Z,30.87
2019-03-24T12:50:08.346Z,33.58
2019-03-24T12:52:30.965Z,31.57
2019-03-24T12:55:02.003Z,30.92
2019-03-24T12:57:32.069Z,32.33
2019-03-24T13:00:02.040Z,30.25
2019-03-24T13:02:33.448Z,32.03
2019-03-24T13:05:03.460Z,29.05
2019-03-24T13:07:34.656Z,29.02
2019-03-24T13:10:04.704Z,31.35
2019-03-24T13:12:34.690Z,26.80
2019-03-24T13:15:05.184Z,27.10
2019-03-24T13:17:35.507Z,26.50
2019-03-24T13:20:05.486Z,29.55
2019-03-24T13:22:35.615Z,26.80
2019-03-24T13:25:05.695Z,29.07
2019-03-24T13:27:35.970Z,27.30
2019-03-24T13:30:06.156Z,25.15
2019-03-24T13:32:36.306Z,24.37
2019-03-24T13:35:06.817Z,25.85
2019-03-24T13:37:37.160Z,27.40
2019-03-24T13:40:07.117Z,31.87
2019-03-24T13:42:37.144Z,28.10
2019-03-24T13:45:07.292Z,27.73
2019-03-24T13:47:37.288Z,27.10
2019-03-24T13:50:07.457Z,28.17
2019-03-24T13:52:37.436Z,26.37
2019-03-24T13:55:07.462Z,25.62
2019-03-24T13:57:37.417Z,24.32
2019-03-24T14:00:07.559Z,28.40
2019-03-24T14:02:37.641Z,27.82
2019-03-24T14:05:07.753Z,25.88
2019-03-24T14:07:38.078Z,28.23
2019-03-24T14:10:08.071Z,24.92
2019-03-24T14:12:38.154Z,22.22
2019-03-24T14:15:08.207Z,24.98
2019-03-24T14:17:38.200Z,25.68
2019-03-24T14:20:09.333Z,27.48
2019-03-24T14:22:39.347Z,27.48
2019-03-24T14:25:21.308Z,27.40
2019-03-24T14:27:52.947Z,29.43
2019-03-24T14:30:30.932Z,33.50
2019-03-24T14:33:00.912Z,29.97
2019-03-24T14:35:31.164Z,30.07
2019-03-24T14:38:01.234Z,31.47
2019-03-24T14:40:31.219Z,30.90
2019-03-24T14:43:01.191Z,29.47
2019-03-24T14:45:31.173Z,29.13
2019-03-24T14:48:03.543Z,29.90
2019-03-24T14:50:33.525Z,28.27
2019-03-24T14:53:03.541Z,28.83
2019-03-24T14:55:34.610Z,33.40
2019-03-24T14:58:04.581Z,31.83
2019-03-24T15:00:35.271Z,31.43
2019-03-24T15:03:05.449Z,32.67
2019-03-24T15:05:35.432Z,32.43
2019-03-24T15:08:06.721Z,33.73
2019-03-24T15:10:36.784Z,32.33
2019-03-24T15:13:06.919Z,31.63
2019-03-24T15:15:36.896Z,30.47
2019-03-24T15:18:07.249Z,31.03
2019-03-24T15:20:37.220Z,29.70
2019-03-24T15:23:07.202Z,32.93
2019-03-24T15:25:37.167Z,29.73
2019-03-24T15:28:07.489Z,31.80
2019-03-24T15:30:37.460Z,31.57
2019-03-24T15:33:07.533Z,32.20
2019-03-24T15:35:37.546Z,33.40
2019-03-24T15:38:08.878Z,37.00
2019-03-24T15:40:39.197Z,36.27
2019-03-24T15:43:09.231Z,33.40
2019-03-24T15:45:39.184Z,37.07
2019-03-24T15:48:09.164Z,34.60
2019-03-24T15:50:39.144Z,35.47
2019-03-24T15:53:09.093Z,34.57
2019-03-24T15:55:39.049Z,34.77
2019-03-24T15:58:10.096Z,43.33
2019-03-24T16:00:40.710Z,39.27
2019-03-24T16:03:10.985Z,38.37
2019-03-24T16:05:41.501Z,39.33
2019-03-24T16:08:11.746Z,38.77
2019-03-24T16:10:41.977Z,40.30
2019-03-24T16:13:11.936Z,38.73
2019-03-24T16:15:41.909Z,34.63
2019-03-24T16:18:11.877Z,34.37
2019-03-24T16:20:41.859Z,34.00
2019-03-24T16:23:11.848Z,34.33
2019-03-24T16:25:41.816Z,36.43
2019-03-24T16:28:11.822Z,33.83
2019-03-24T16:30:42.104Z,32.60
2019-03-24T16:33:12.113Z,28.97
2019-03-24T16:35:42.068Z,31.47
2019-03-24T16:38:12.017Z,32.80
2019-03-24T16:40:42.058Z,28.60
2019-03-24T16:43:12.098Z,28.30
2019-03-24T16:45:42.337Z,26.80
2019-03-24T16:48:13.708Z,30.20
2019-03-24T16:50:44.334Z,29.97
2019-03-24T16:53:14.804Z,33.37
2019-03-24T16:55:44.764Z,33.17
2019-03-24T16:58:15.069Z,30.77
2019-03-24T17:00:46.048Z,33.17
2019-03-24T17:03:16.023Z,31.57
2019-03-24T17:05:45.985Z,29.43
2019-03-24T17:08:15.938Z,27.17
2019-03-24T17:10:46.270Z,30.03
2019-03-24T17:13:16.210Z,31.73
2019-03-24T17:15:46.751Z,29.10
2019-03-24T17:18:19.779Z,29.13
2019-03-24T17:20:49.997Z,30.07
2019-03-24T17:23:20.412Z,29.07
2019-03-24T17:25:50.445Z,30.77
2019-03-24T17:28:20.553Z,30.07
2019-03-24T17:30:50.509Z,30.80
2019-03-24T17:33:20.597Z,33.27
2019-03-24T17:35:51.683Z,33.40
2019-03-24T17:38:21.961Z,28.50
2019-03-24T17:40:52.405Z,29.43
2019-03-24T17:43:22.458Z,28.57
2019-03-24T17:45:52.412Z,27.87
2019-03-24T17:48:22.431Z,27.93
2019-03-24T17:50:52.463Z,28.13
2019-03-24T17:53:22.483Z,34.63
2019-03-24T17:55:52.537Z,32.87
2019-03-24T17:58:22.624Z,30.67
2019-03-24T18:00:54.673Z,28.70
2019-03-24T18:03:24.663Z,27.67
2019-03-24T18:05:54.777Z,28.90
2019-03-24T18:08:25.110Z,30.50
2019-03-24T18:10:55.097Z,32.93
2019-03-24T18:23:19.502Z,33.63
2019-03-24T18:25:49.730Z,36.27
2019-03-24T18:28:19.808Z,35.60
2019-03-24T18:30:49.776Z,33.63
2019-03-24T18:33:19.764Z,35.07
2019-03-24T18:35:49.734Z,35.90
2019-03-24T18:38:19.704Z,32.37
2019-03-24T18:40:49.732Z,33.27
2019-03-24T18:43:19.925Z,35.13
2019-03-24T18:45:49.901Z,36.53
2019-03-24T18:48:19.871Z,31.00
2019-03-24T18:50:49.940Z,35.60
2019-03-24T18:53:19.966Z,31.40
2019-03-24T18:55:49.931Z,31.13
2019-03-24T18:58:19.929Z,30.70
2019-03-24T19:00:49.885Z,36.97
2019-03-24T19:03:19.900Z,33.87
2019-03-24T19:05:49.945Z,32.77
2019-03-24T19:08:20.372Z,31.73
2019-03-24T19:10:50.331Z,32.20
2019-03-24T19:13:20.330Z,34.03
2019-03-24T19:15:50.323Z,30.63
2019-03-24T19:18:20.390Z,33.67
2019-03-24T19:20:50.367Z,30.03
2019-03-24T19:23:20.354Z,36.43
2019-03-24T19:25:50.370Z,32.03
2019-03-24T19:28:20.581Z,36.87
2019-03-24T19:30:50.982Z,36.50
2019-03-24T19:33:21.053Z,33.23
2019-03-24T19:35:51.306Z,38.43
2019-03-24T19:38:21.339Z,33.23
2019-03-24T19:40:51.425Z,32.10
2019-03-24T19:43:21.672Z,37.87
2019-03-24T19:45:53.581Z,35.70
2019-03-24T19:48:23.694Z,43.77
2019-03-24T19:50:54.543Z,41.87
2019-03-24T19:53:24.784Z,39.23
2019-03-24T19:55:55.073Z,39.80
2019-03-24T19:58:25.196Z,39.80
2019-03-24T20:00:55.575Z,38.30
2019-03-24T20:03:25.707Z,45.87
2019-03-24T20:05:55.879Z,42.10
2019-03-24T20:08:25.971Z,42.57
2019-03-24T20:10:56.016Z,47.87
2019-03-24T20:13:27.231Z,49.20
2019-03-24T20:15:57.602Z,53.13
2019-03-24T20:18:27.716Z,52.33
2019-03-24T20:20:57.813Z,49.03
2019-03-24T20:23:27.898Z,52.33
2019-03-24T20:25:57.985Z,54.27
2019-03-24T20:28:28.023Z,54.50
2019-03-24T20:30:57.988Z,51.10
2019-03-24T20:33:28.432Z,52.80
2019-03-24T20:35:58.894Z,51.23
2019-03-24T20:38:29.346Z,55.67
2019-03-24T20:40:59.367Z,55.57
2019-03-24T20:43:29.777Z,57.47
2019-03-24T20:45:59.870Z,55.20
2019-03-24T20:48:29.933Z,56.67
2019-03-24T20:50:59.932Z,57.77
2019-03-24T20:53:30.345Z,58.63
2019-03-24T20:56:00.445Z,56.37
2019-03-24T20:58:30.520Z,56.63
2019-03-24T21:01:00.615Z,56.43
2019-03-24T21:03:31.831Z,55.50
2019-03-24T21:06:01.952Z,54.87
2019-03-24T21:08:31.985Z,58.67
2019-03-24T21:11:02.045Z,60.83
2019-03-24T21:13:32.119Z,54.43
2019-03-24T21:16:02.105Z,60.13
2019-03-24T21:18:32.094Z,59.93
2019-03-24T21:21:02.111Z,56.90
2019-03-24T21:23:32.304Z,58.47
2019-03-24T21:26:02.266Z,57.57
2019-03-24T21:28:32.350Z,60.07
2019-03-24T21:31:02.343Z,57.13
2019-03-24T21:33:32.336Z,55.53
2019-03-24T21:36:02.291Z,56.40
2019-03-24T21:38:32.372Z,57.00
2019-03-24T21:41:02.615Z,55.47
2019-03-24T21:43:32.650Z,57.00
2019-03-24T21:46:02.897Z,55.87
2019-03-24T21:48:32.884Z,54.60
2019-03-24T21:51:02.845Z,58.43
2019-03-24T21:53:40.549Z,59.57
2019-03-24T21:56:04.788Z,61.33
2019-03-24T21:58:34.851Z,56.60
2019-03-24T22:01:04.918Z,61.93
2019-03-24T22:03:35.968Z,59.53
2019-03-24T22:06:06.032Z,63.50
2019-03-24T22:08:36.077Z,59.03
2019-03-24T22:11:06.072Z,58.83
2019-03-24T22:13:36.141Z,59.43
2019-03-24T22:16:06.272Z,59.20
2019-03-24T22:18:36.606Z,60.43
2019-03-24T22:21:06.676Z,58.57
2019-03-24T22:23:36.983Z,64.80
2019-03-24T22:26:06.959Z,60.00
2019-03-24T22:28:36.988Z,58.03
2019-03-24T22:31:06.972Z,66.07
2019-03-24T22:33:37.029Z,59.60
2019-03-24T22:36:07.104Z,59.90
2019-03-24T22:38:37.136Z,66.73
2019-03-24T22:41:07.116Z,61.83
2019-03-24T22:43:37.196Z,62.53
2019-03-24T22:46:07.562Z,62.13
2019-03-24T22:48:37.539Z,58.83
2019-03-24T22:51:07.577Z,64.27
2019-03-24T22:53:37.590Z,58.47
2019-03-24T22:56:07.637Z,62.00
2019-03-24T22:58:37.931Z,64.20
2019-03-24T23:01:08.549Z,56.27
2019-03-24T23:03:40.115Z,61.60
2019-03-24T23:06:10.132Z,60.50
2019-03-24T23:08:40.607Z,58.57
2019-03-24T23:11:10.576Z,65.00
2019-03-24T23:13:40.625Z,63.57
2019-03-24T23:16:10.649Z,58.77
2019-03-24T23:18:40.746Z,60.10
2019-03-24T23:21:10.881Z,59.67
2019-03-24T23:23:40.867Z,64.37
2019-03-24T23:26:10.897Z,61.73
2019-03-24T23:28:40.890Z,57.80
2019-03-24T23:31:11.958Z,59.30
2019-03-24T23:33:42.060Z,60.13
2019-03-24T23:36:12.819Z,61.60
2019-03-24T23:38:43.156Z,60.97
2019-03-24T23:41:13.109Z,62.00
2019-03-24T23:43:43.069Z,61.53
2019-03-24T23:46:13.368Z,60.37
2019-03-24T23:48:43.336Z,59.27
2019-03-24T23:51:13.321Z,65.13
2019-03-24T23:53:43.280Z,65.73
2019-03-24T23:56:13.225Z,61.67
2019-03-24T23:58:43.192Z,61.10
